TimeCDT,TemperatureF,Dew PointF,Humidity,Sea Level PressureIn,VisibilityMPH,Wind Direction,Wind SpeedMPH,Gust SpeedMPH,PrecipitationIn,Events,Conditions,WindDirDegrees,DateUTC
12:52 AM,73.9,72.0,93,29.77,6.0,WSW,3.5,-,N/A,,Clear,250,2013-06-27 05:52:00
1:52 AM,73.9,71.1,91,29.77,10.0,West,4.6,-,N/A,,Clear,270,2013-06-27 06:52:00
2:52 AM,73.9,69.1,85,29.79,10.0,WNW,5.8,-,N/A,,Clear,290,2013-06-27 07:52:00
3:52 AM,71.1,68.0,90,29.79,10.0,West,5.8,-,N/A,,Clear,260,2013-06-27 08:52:00
4:52 AM,71.1,66.9,87,29.80,10.0,SW,4.6,-,N/A,,Clear,230,2013-06-27 09:52:00
5:52 AM,71.1,66.0,84,29.82,10.0,West,4.6,-,N/A,,Clear,260,2013-06-27 10:52:00
6:52 AM,73.0,66.9,81,29.83,10.0,West,4.6,-,N/A,,Clear,280,2013-06-27 11:52:00
7:52 AM,75.9,68.0,76,29.85,10.0,West,8.1,-,N/A,,Clear,270,2013-06-27 12:52:00
8:52 AM,79.0,68.0,69,29.85,10.0,WNW,5.8,-,N/A,,Clear,290,2013-06-27 13:52:00
9:52 AM,82.0,69.1,65,29.83,10.0,West,4.6,-,N/A,,Clear,270,2013-06-27 14:52:00
10:52 AM,84.0,69.1,61,29.83,10.0,West,8.1,-,N/A,,Clear,280,2013-06-27 15:52:00
11:52 AM,84.9,70.0,61,29.83,10.0,West,9.2,-,N/A,,Clear,270,2013-06-27 16:52:00
12:52 PM,87.1,69.1,55,29.83,10.0,West,10.4,-,N/A,,Partly Cloudy,260,2013-06-27 17:52:00
1:52 PM,87.1,68.0,53,29.83,10.0,West,15.0,20.7,N/A,,Clear,270,2013-06-27 18:52:00
2:52 PM,84.9,66.9,55,29.81,10.0,West,21.9,31.1,N/A,,Clear,270,2013-06-27 19:52:00
3:52 PM,84.9,68.0,57,29.81,10.0,West,16.1,-,N/A,,Clear,280,2013-06-27 20:52:00
4:52 PM,82.9,66.0,56,29.78,10.0,West,15.0,21.9,N/A,,Clear,280,2013-06-27 21:52:00
5:52 PM,84.0,66.0,55,29.78,10.0,WNW,15.0,23.0,N/A,,Clear,290,2013-06-27 22:52:00
6:52 PM,82.9,66.9,58,29.77,10.0,WNW,10.4,18.4,N/A,,Clear,290,2013-06-27 23:52:00
7:52 PM,81.0,66.9,62,29.76,10.0,West,12.7,-,N/A,,Clear,280,2013-06-28 00:52:00
8:52 PM,78.1,66.9,68,29.76,10.0,WNW,5.8,-,N/A,,Clear,290,2013-06-28 01:52:00
9:52 PM,73.9,68.0,82,29.78,10.0,West,5.8,-,N/A,,Clear,280,2013-06-28 02:52:00
10:52 PM,75.0,66.9,76,29.79,10.0,WNW,4.6,-,N/A,,Clear,290,2013-06-28 03:52:00
11:52 PM,75.0,62.1,64,29.81,10.0,WNW,6.9,-,N/A,,Clear,290,2013-06-28 04:52:00